Time;durP1;ratioP1;P1;durP2;ratioP2;P2;SDS_P1;SDS_P2;PMS_P1;PMS_P2;Temp;Humidity;BMP_temperature;BMP_pressure;BME280_temperature;BME280_humidity;BME280_pressure;Samples;Min_cycle;Max_cycle;Signal;HPM_P1;HPM_P2
2021/05/04 00:01:04;;;;;;;;;;;5.50;99.90;;;;;;5113214;28;19908;-71
2021/05/04 00:03:30;;;;;;;;;;;5.60;99.90;;;;;;5113000;28;19907;-71
2021/05/04 00:05:55;;;;;;;;;;;5.60;99.90;;;;;;5110812;28;19908;-71
2021/05/04 00:08:21;;;;;;;;;;;5.60;99.90;;;;;;5112899;28;20391;-71
2021/05/04 00:10:46;;;;;;;;;;;5.60;99.90;;;;;;5112470;28;19907;-71
2021/05/04 00:13:11;;;;;;;;;;;5.60;99.90;;;;;;5112504;28;20322;-71
2021/05/04 00:15:37;;;;;;;;;;;5.70;99.90;;;;;;5112156;28;19912;-71
2021/05/04 00:18:03;;;;;;;;;;;5.60;99.90;;;;;;5111005;28;19934;-71
2021/05/04 00:20:28;;;;;;;;;;;5.50;99.90;;;;;;5112676;28;19953;-71
2021/05/04 00:22:54;;;;;;;;;;;5.60;99.90;;;;;;5112513;28;20127;-71
2021/05/04 00:25:19;;;;;;;;;;;5.50;99.90;;;;;;5096618;28;19959;-71
2021/05/04 00:27:45;;;;;;;;;;;5.50;99.90;;;;;;5090522;28;19916;-71
2021/05/04 00:30:11;;;;;;;;;;;5.50;99.90;;;;;;5091580;28;19915;-71
2021/05/04 00:32:36;;;;;;;;;;;5.50;99.90;;;;;;5092095;28;19908;-71
2021/05/04 00:35:02;;;;;;;;;;;5.40;99.90;;;;;;5092298;28;20333;-71
2021/05/04 00:37:27;;;;;;;;;;;5.40;99.90;;;;;;5090933;28;20400;-71
2021/05/04 00:39:53;;;;;;;;;;;5.40;99.90;;;;;;5091701;28;19957;-71
2021/05/04 00:42:23;;;;;;;;;;;5.30;99.90;;;;;;5091675;28;20357;-71
2021/05/04 00:44:48;;;;;;;;;;;5.30;99.90;;;;;;5091846;28;19909;-71
2021/05/04 00:47:14;;;;;;;;;;;5.20;99.90;;;;;;5090766;28;19915;-71
2021/05/04 00:49:39;;;;;;;;;;;5.20;99.90;;;;;;5091727;28;20384;-71
2021/05/04 00:52:05;;;;;;;;;;;5.20;99.90;;;;;;5092219;28;19914;-71
2021/05/04 00:54:30;;;;;;;;;;;5.20;99.90;;;;;;5090154;28;20193;-71
2021/05/04 00:56:56;;;;;;;;;;;5.20;99.90;;;;;;5084140;28;19908;-71
2021/05/04 00:59:25;;;;;;;;;;;5.20;99.90;;;;;;5090072;28;20444;-71
2021/05/04 01:01:54;;;;;;;;;;;5.20;99.90;;;;;;5090263;28;19915;-71
2021/05/04 01:04:20;;;;;;;;;;;5.10;99.90;;;;;;5091857;28;20383;-71
2021/05/04 01:06:46;;;;;;;;;;;5.10;99.90;;;;;;5090517;28;20384;-71
2021/05/04 01:09:13;;;;;;;;;;;5.10;99.90;;;;;;5091172;28;19916;-71
2021/05/04 01:11:39;;;;;;;;;;;5.00;99.90;;;;;;5091226;28;19961;-71
2021/05/04 01:14:04;;;;;;;;;;;5.00;99.90;;;;;;5091332;28;20034;-71
2021/05/04 01:16:30;;;;;;;;;;;5.00;99.90;;;;;;5086203;28;20392;-71
2021/05/04 01:18:55;;;;;;;;;;;4.90;99.90;;;;;;5091249;28;19908;-71
2021/05/04 01:21:21;;;;;;;;;;;4.80;99.90;;;;;;5091113;28;19966;-71
2021/05/04 01:23:46;;;;;;;;;;;4.80;99.90;;;;;;5091040;28;19908;-71
2021/05/04 01:26:11;;;;;;;;;;;4.80;99.90;;;;;;5082558;28;19988;-71
2021/05/04 01:28:37;;;;;;;;;;;4.80;99.90;;;;;;5090951;28;19912;-71
2021/05/04 01:31:02;;;;;;;;;;;4.70;99.90;;;;;;5091125;28;19908;-71
2021/05/04 01:33:28;;;;;;;;;;;4.70;99.90;;;;;;5090984;28;19916;-71
2021/05/04 01:35:53;;;;;;;;;;;4.70;99.90;;;;;;5088434;28;19969;-71
2021/05/04 01:38:19;;;;;;;;;;;4.70;99.90;;;;;;5087652;28;19920;-71
2021/05/04 01:40:45;;;;;;;;;;;4.80;99.90;;;;;;5093290;28;20022;-71
2021/05/04 01:43:10;;;;;;;;;;;4.80;99.90;;;;;;5094958;28;19954;-70
2021/05/04 01:45:36;;;;;;;;;;;4.90;99.90;;;;;;5094591;28;20119;-71
2021/05/04 01:48:01;;;;;;;;;;;4.90;99.90;;;;;;5094384;28;19995;-71
2021/05/04 01:50:27;;;;;;;;;;;4.90;99.90;;;;;;5095175;28;19961;-71
2021/05/04 01:52:52;;;;;;;;;;;5.00;99.90;;;;;;5095008;28;20012;-71
2021/05/04 01:55:18;;;;;;;;;;;5.00;99.90;;;;;;5095071;28;19912;-71
2021/05/04 01:57:43;;;;;;;;;;;5.10;99.90;;;;;;5093705;28;19915;-71
2021/05/04 02:00:09;;;;;;;;;;;5.20;99.90;;;;;;5094983;28;19923;-71
2021/05/04 02:02:35;;;;;;;;;;;5.30;99.90;;;;;;5102778;28;19915;-71
2021/05/04 02:05:01;;;;;;;;;;;5.30;99.90;;;;;;5115170;28;19915;-71
2021/05/04 02:07:26;;;;;;;;;;;5.40;99.90;;;;;;5114007;28;19911;-71
2021/05/04 02:09:52;;;;;;;;;;;5.50;99.90;;;;;;5114977;28;19951;-71
2021/05/04 02:12:17;;;;;;;;;;;5.60;99.90;;;;;;5115478;28;20022;-71
2021/05/04 02:14:43;;;;;;;;;;;5.70;99.90;;;;;;5115114;28;19959;-71
2021/05/04 02:17:09;;;;;;;;;;;5.70;99.90;;;;;;5113855;28;19908;-71
2021/05/04 02:19:37;;;;;;;;;;;5.80;99.90;;;;;;5115316;28;19994;-71
2021/05/04 02:22:02;;;;;;;;;;;5.80;99.90;;;;;;5113408;28;19961;-71
2021/05/04 02:24:28;;;;;;;;;;;5.80;99.90;;;;;;5115046;28;20292;-71
2021/05/04 02:26:53;;;;;;;;;;;5.80;99.90;;;;;;5113769;28;19911;-71
2021/05/04 02:29:19;;;;;;;;;;;5.80;99.90;;;;;;5114687;28;20459;-71
2021/05/04 02:31:44;;;;;;;;;;;5.80;99.90;;;;;;5106716;28;19908;-71
2021/05/04 02:34:10;;;;;;;;;;;5.90;99.90;;;;;;5093914;28;19908;-71
2021/05/04 02:36:35;;;;;;;;;;;5.90;99.90;;;;;;5093331;28;20380;-71
2021/05/04 02:39:02;;;;;;;;;;;5.90;99.90;;;;;;5094097;28;19980;-71
2021/05/04 02:41:28;;;;;;;;;;;6.00;99.90;;;;;;5094322;28;19908;-71
2021/05/04 02:43:53;;;;;;;;;;;6.00;99.90;;;;;;5094092;28;19926;-71
2021/05/04 02:46:19;;;;;;;;;;;6.10;99.90;;;;;;5093132;28;19918;-71
2021/05/04 02:48:44;;;;;;;;;;;6.10;99.90;;;;;;5093690;28;19926;-71
2021/05/04 02:51:11;;;;;;;;;;;6.10;99.90;;;;;;5093731;28;19908;-71
2021/05/04 02:53:37;;;;;;;;;;;6.20;99.90;;;;;;5093468;28;20335;-70
2021/05/04 02:56:04;;;;;;;;;;;6.20;99.90;;;;;;5092738;28;20293;-71
2021/05/04 02:58:29;;;;;;;;;;;6.30;99.90;;;;;;5093931;28;19958;-71
2021/05/04 03:00:56;;;;;;;;;;;6.30;99.90;;;;;;5093887;28;19951;-71
2021/05/04 03:03:21;;;;;;;;;;;6.40;99.90;;;;;;5091355;28;19915;-71
2021/05/04 03:05:47;;;;;;;;;;;6.40;99.90;;;;;;5092566;28;19991;-71
2021/05/04 03:08:12;;;;;;;;;;;6.40;99.90;;;;;;5093547;28;19919;-69
2021/05/04 03:10:38;;;;;;;;;;;6.50;99.90;;;;;;5093647;28;19908;-70
2021/05/04 03:13:04;;;;;;;;;;;6.50;99.90;;;;;;5093752;28;19967;-70
2021/05/04 03:15:29;;;;;;;;;;;6.60;99.90;;;;;;5093706;28;19995;-70
2021/05/04 03:17:55;;;;;;;;;;;6.60;99.90;;;;;;5092395;28;20285;-69
2021/05/04 03:20:20;;;;;;;;;;;6.60;99.90;;;;;;5093154;28;19965;-70
2021/05/04 03:22:46;;;;;;;;;;;6.70;99.90;;;;;;5093420;28;20361;-70
2021/05/04 03:25:11;;;;;;;;;;;6.70;99.90;;;;;;5093234;28;19908;-70
2021/05/04 03:27:37;;;;;;;;;;;6.70;99.90;;;;;;5092047;28;19912;-71
2021/05/04 03:30:03;;;;;;;;;;;6.70;99.90;;;;;;5093225;28;19908;-69
2021/05/04 03:32:28;;;;;;;;;;;6.80;99.90;;;;;;5099781;28;19908;-69
2021/05/04 03:34:54;;;;;;;;;;;6.80;99.90;;;;;;5113425;28;19953;-69
2021/05/04 03:37:19;;;;;;;;;;;6.80;99.90;;;;;;5112308;28;20402;-69
2021/05/04 03:39:45;;;;;;;;;;;6.80;99.90;;;;;;5113244;28;19907;-70
2021/05/04 03:42:10;;;;;;;;;;;6.80;99.90;;;;;;5113400;28;20019;-70
2021/05/04 03:44:36;;;;;;;;;;;6.80;99.90;;;;;;5113192;28;20432;-70
2021/05/04 03:47:01;;;;;;;;;;;6.80;99.90;;;;;;5112048;28;19908;-70
2021/05/04 03:49:27;;;;;;;;;;;6.90;99.90;;;;;;5112949;28;20451;-69
2021/05/04 03:51:52;;;;;;;;;;;6.90;99.90;;;;;;5113077;28;19998;-69
2021/05/04 03:54:18;;;;;;;;;;;6.90;99.90;;;;;;5112949;28;19908;-69
2021/05/04 03:56:43;;;;;;;;;;;7.00;99.90;;;;;;5111973;28;19950;-69
2021/05/04 03:59:09;;;;;;;;;;;7.00;99.90;;;;;;5112969;28;19919;-69
2021/05/04 04:01:36;;;;;;;;;;;7.00;99.90;;;;;;5106540;28;19916;-70
2021/05/04 04:04:01;;;;;;;;;;;7.00;99.90;;;;;;5091303;28;19965;-69
2021/05/04 04:06:27;;;;;;;;;;;7.10;99.90;;;;;;5091765;28;19992;-69
2021/05/04 04:08:52;;;;;;;;;;;7.10;99.90;;;;;;5092354;28;19916;-70
2021/05/04 04:11:18;;;;;;;;;;;7.10;99.90;;;;;;5092478;28;19915;-69
2021/05/04 04:13:44;;;;;;;;;;;7.10;99.90;;;;;;5091012;28;19908;-70
2021/05/04 04:16:10;;;;;;;;;;;7.10;99.90;;;;;;5091223;28;19912;-70
2021/05/04 04:18:35;;;;;;;;;;;7.10;99.90;;;;;;5091845;28;19914;-69
2021/05/04 04:21:01;;;;;;;;;;;7.10;99.90;;;;;;5090929;28;19912;-69
2021/05/04 04:23:26;;;;;;;;;;;7.10;99.90;;;;;;5092035;28;20424;-69
2021/05/04 04:25:52;;;;;;;;;;;7.10;99.90;;;;;;5090180;28;19916;-69
2021/05/04 04:28:18;;;;;;;;;;;7.20;99.90;;;;;;5092041;28;20301;-70
2021/05/04 04:30:43;;;;;;;;;;;7.20;99.90;;;;;;5091985;28;20315;-69
2021/05/04 04:33:09;;;;;;;;;;;7.20;99.90;;;;;;5089673;28;19923;-70
2021/05/04 04:35:34;;;;;;;;;;;7.20;99.90;;;;;;5091320;28;20418;-69
2021/05/04 04:38:00;;;;;;;;;;;7.30;99.90;;;;;;5091426;28;19916;-70
2021/05/04 04:40:25;;;;;;;;;;;7.30;99.90;;;;;;5091898;28;20381;-70
2021/05/04 04:42:51;;;;;;;;;;;7.30;99.90;;;;;;5091844;28;19916;-69
2021/05/04 04:45:16;;;;;;;;;;;7.30;99.90;;;;;;5092234;28;19908;-69
2021/05/04 04:47:42;;;;;;;;;;;7.30;99.90;;;;;;5090366;28;19912;-69
2021/05/04 04:50:08;;;;;;;;;;;7.40;99.90;;;;;;5091767;28;19913;-69
2021/05/04 04:52:34;;;;;;;;;;;7.30;99.90;;;;;;5091755;28;19908;-70
2021/05/04 04:54:59;;;;;;;;;;;7.40;99.90;;;;;;5091683;28;20018;-70
2021/05/04 04:57:24;;;;;;;;;;;7.40;99.90;;;;;;5089118;28;19938;-70
2021/05/04 04:59:50;;;;;;;;;;;7.50;99.90;;;;;;5091673;28;19908;-70
2021/05/04 05:02:19;;;;;;;;;;;7.60;99.90;;;;;;5089428;28;20002;-70
2021/05/04 05:04:45;;;;;;;;;;;7.60;99.90;;;;;;5091408;28;19962;-69
2021/05/04 05:07:10;;;;;;;;;;;7.70;99.90;;;;;;5085845;28;19908;-70
2021/05/04 05:09:36;;;;;;;;;;;7.70;99.90;;;;;;5091166;28;20323;-69
2021/05/04 05:12:05;;;;;;;;;;;7.70;99.90;;;;;;5090782;28;19930;-69
2021/05/04 05:14:33;;;;;;;;;;;7.80;99.90;;;;;;5090370;28;19991;-69
2021/05/04 05:16:59;;;;;;;;;;;7.80;99.90;;;;;;5088518;28;19912;-69
2021/05/04 05:19:24;;;;;;;;;;;7.90;99.90;;;;;;5091223;28;19969;-69
2021/05/04 05:21:50;;;;;;;;;;;8.00;99.90;;;;;;5091330;28;19955;-69
2021/05/04 05:24:15;;;;;;;;;;;8.00;99.90;;;;;;5091203;28;19908;-68
2021/05/04 05:26:41;;;;;;;;;;;8.10;99.90;;;;;;5090024;28;20038;-69
2021/05/04 05:29:06;;;;;;;;;;;8.20;99.90;;;;;;5089811;28;19912;-69
2021/05/04 05:31:34;;;;;;;;;;;8.30;99.90;;;;;;5087913;28;19944;-69
2021/05/04 05:33:59;;;;;;;;;;;8.40;99.80;;;;;;5090719;28;19920;-69
2021/05/04 05:36:25;;;;;;;;;;;8.50;99.90;;;;;;5089879;28;20343;-69
2021/05/04 05:38:50;;;;;;;;;;;8.60;99.90;;;;;;5091130;28;19967;-69
2021/05/04 05:41:16;;;;;;;;;;;8.70;99.70;;;;;;5091167;28;19951;-70
2021/05/04 05:43:41;;;;;;;;;;;8.80;99.00;;;;;;5090964;28;19922;-69
2021/05/04 05:46:07;;;;;;;;;;;8.90;98.70;;;;;;5089911;28;19908;-69
2021/05/04 05:48:32;;;;;;;;;;;9.10;99.00;;;;;;5089120;28;20410;-70
2021/05/04 05:50:58;;;;;;;;;;;9.20;98.90;;;;;;5089990;28;19922;-71
2021/05/04 05:53:24;;;;;;;;;;;9.30;99.10;;;;;;5084919;28;19908;-70
2021/05/04 05:55:49;;;;;;;;;;;9.30;98.40;;;;;;5087924;28;19912;-69
2021/05/04 05:58:15;;;;;;;;;;;9.40;98.40;;;;;;5091341;28;19908;-69
2021/05/04 06:00:40;;;;;;;;;;;9.50;98.30;;;;;;5091069;28;19915;-69
2021/05/04 06:03:06;;;;;;;;;;;9.60;98.40;;;;;;5088976;28;19912;-69
2021/05/04 06:05:32;;;;;;;;;;;9.70;98.40;;;;;;5090688;28;19912;-70
2021/05/04 06:07:58;;;;;;;;;;;9.80;97.80;;;;;;5090445;28;19912;-69
2021/05/04 06:10:23;;;;;;;;;;;9.90;97.30;;;;;;5091209;28;19908;-69
2021/05/04 06:12:56;;;;;;;;;;;10.00;96.80;;;;;;5089757;28;20005;-71
2021/05/04 06:15:22;;;;;;;;;;;10.10;97.00;;;;;;5090711;28;19915;-70
2021/05/04 06:17:47;;;;;;;;;;;10.20;96.70;;;;;;5089500;28;19908;-69
2021/05/04 06:20:13;;;;;;;;;;;10.20;96.80;;;;;;5089835;28;20377;-70
2021/05/04 06:22:39;;;;;;;;;;;10.30;96.90;;;;;;5091037;28;19954;-71
2021/05/04 06:25:04;;;;;;;;;;;10.40;96.80;;;;;;5091351;28;19915;-70
2021/05/04 06:27:30;;;;;;;;;;;10.40;95.30;;;;;;5092197;28;19920;-70
2021/05/04 06:29:57;;;;;;;;;;;10.60;95.70;;;;;;5094882;28;20029;-71
2021/05/04 06:32:25;;;;;;;;;;;10.70;95.30;;;;;;5092813;28;19908;-71
2021/05/04 06:34:51;;;;;;;;;;;10.80;94.90;;;;;;5108387;28;19908;-70
2021/05/04 06:37:17;;;;;;;;;;;10.90;95.20;;;;;;5110432;28;20351;-70
2021/05/04 06:39:42;;;;;;;;;;;11.00;95.30;;;;;;5111059;28;19908;-70
2021/05/04 06:42:08;;;;;;;;;;;11.10;95.20;;;;;;5094910;28;19908;-71
2021/05/04 06:44:33;;;;;;;;;;;11.20;95.10;;;;;;5094488;28;19915;-70
2021/05/04 06:46:59;;;;;;;;;;;11.20;94.30;;;;;;5093921;28;20361;-70
2021/05/04 06:49:24;;;;;;;;;;;11.30;94.30;;;;;;5093942;28;19918;-70
2021/05/04 06:51:50;;;;;;;;;;;11.40;94.60;;;;;;5094648;28;19912;-70
2021/05/04 06:54:15;;;;;;;;;;;11.40;94.20;;;;;;5093113;28;19935;-70
2021/05/04 06:56:41;;;;;;;;;;;11.50;93.70;;;;;;5108855;28;20397;-71
2021/05/04 06:59:06;;;;;;;;;;;11.50;94.00;;;;;;5094234;28;19916;-70
2021/05/04 07:01:33;;;;;;;;;;;11.60;93.40;;;;;;5094978;28;19913;-70
2021/05/04 07:03:58;;;;;;;;;;;11.60;93.30;;;;;;5114199;28;19914;-71
2021/05/04 07:06:23;;;;;;;;;;;11.70;93.50;;;;;;5095096;28;19998;-71
2021/05/04 07:08:49;;;;;;;;;;;11.80;93.40;;;;;;5094053;28;20446;-71
2021/05/04 07:11:15;;;;;;;;;;;11.90;92.90;;;;;;5094163;28;19939;-71
2021/05/04 07:13:41;;;;;;;;;;;12.20;92.80;;;;;;5094457;28;20270;-71
2021/05/04 07:16:06;;;;;;;;;;;12.50;93.00;;;;;;5093144;28;19912;-71
2021/05/04 07:18:32;;;;;;;;;;;12.70;92.40;;;;;;5092265;28;20344;-71
2021/05/04 07:20:58;;;;;;;;;;;12.80;92.30;;;;;;5094225;28;19955;-70
2021/05/04 07:23:24;;;;;;;;;;;13.00;92.30;;;;;;5093926;28;19947;-71
2021/05/04 07:25:49;;;;;;;;;;;12.80;91.40;;;;;;5093161;28;19912;-71
2021/05/04 07:28:17;;;;;;;;;;;12.70;92.10;;;;;;5093476;28;19958;-71
2021/05/04 07:30:43;;;;;;;;;;;12.60;92.30;;;;;;5093911;28;19923;-71
2021/05/04 07:33:08;;;;;;;;;;;12.60;91.80;;;;;;5099874;28;19908;-70
2021/05/04 07:35:34;;;;;;;;;;;12.60;92.50;;;;;;5092225;28;19908;-70
2021/05/04 07:38:00;;;;;;;;;;;12.60;92.20;;;;;;5092829;28;19924;-70
2021/05/04 07:40:26;;;;;;;;;;;12.80;92.50;;;;;;5093544;28;19908;-70
2021/05/04 07:42:51;;;;;;;;;;;13.00;91.30;;;;;;5091737;28;19923;-70
2021/05/04 07:45:17;;;;;;;;;;;13.20;91.20;;;;;;5093466;28;20010;-70
2021/05/04 07:47:43;;;;;;;;;;;13.40;91.30;;;;;;5092116;28;19912;-70
2021/05/04 07:50:11;;;;;;;;;;;13.60;90.00;;;;;;5093310;28;19947;-70
2021/05/04 07:52:37;;;;;;;;;;;13.70;89.80;;;;;;5092969;28;19908;-70
2021/05/04 07:55:03;;;;;;;;;;;13.80;88.90;;;;;;5093172;28;19962;-70
2021/05/04 07:57:28;;;;;;;;;;;14.00;89.00;;;;;;5091731;28;20431;-70
2021/05/04 07:59:55;;;;;;;;;;;14.10;88.30;;;;;;5093037;28;19911;-70
2021/05/04 08:02:20;;;;;;;;;;;14.40;88.40;;;;;;5090806;28;19981;-70
2021/05/04 08:04:46;;;;;;;;;;;14.80;84.90;;;;;;5092756;28;20365;-70
2021/05/04 08:07:12;;;;;;;;;;;15.30;86.00;;;;;;5091747;28;19931;-70
2021/05/04 08:09:37;;;;;;;;;;;15.90;85.50;;;;;;5092715;28;20354;-70
2021/05/04 08:12:04;;;;;;;;;;;16.20;82.90;;;;;;5092631;28;19991;-70
2021/05/04 08:14:31;;;;;;;;;;;16.40;82.20;;;;;;5092294;28;20085;-70
2021/05/04 08:16:57;;;;;;;;;;;16.40;81.10;;;;;;5091250;28;19908;-71
2021/05/04 08:19:23;;;;;;;;;;;16.40;82.70;;;;;;5092211;28;20375;-70
2021/05/04 08:21:49;;;;;;;;;;;16.10;81.00;;;;;;5092432;28;19908;-70
2021/05/04 08:24:14;;;;;;;;;;;15.80;80.30;;;;;;5092079;28;19915;-71
2021/05/04 08:26:40;;;;;;;;;;;15.60;80.60;;;;;;5090776;28;19947;-70
2021/05/04 08:29:06;;;;;;;;;;;15.40;80.80;;;;;;5091772;28;19919;-70
2021/05/04 08:31:32;;;;;;;;;;;15.20;81.00;;;;;;5090349;28;19909;-71
2021/05/04 08:33:57;;;;;;;;;;;15.00;82.50;;;;;;5091973;28;19936;-70
2021/05/04 08:36:23;;;;;;;;;;;14.90;80.90;;;;;;5091189;28;20273;-70
2021/05/04 08:38:48;;;;;;;;;;;14.90;81.70;;;;;;5091404;28;19923;-70
2021/05/04 08:41:15;;;;;;;;;;;15.10;82.60;;;;;;5090911;28;19915;-70
2021/05/04 08:43:45;;;;;;;;;;;15.20;83.30;;;;;;5090905;28;19915;-70
2021/05/04 08:46:10;;;;;;;;;;;15.50;83.40;;;;;;5088446;28;19928;-70
2021/05/04 08:48:37;;;;;;;;;;;15.90;82.80;;;;;;5091399;28;19912;-70
2021/05/04 08:51:03;;;;;;;;;;;16.20;81.90;;;;;;5091504;28;19958;-70
2021/05/04 08:53:28;;;;;;;;;;;16.30;80.50;;;;;;5092030;28;20419;-70
2021/05/04 08:55:54;;;;;;;;;;;16.30;79.70;;;;;;5090546;28;19912;-70
2021/05/04 08:58:21;;;;;;;;;;;16.40;80.70;;;;;;5091720;28;19908;-70
2021/05/04 09:00:47;;;;;;;;;;;16.70;81.90;;;;;;5091672;28;19919;-70
2021/05/04 09:03:19;;;;;;;;;;;17.00;78.50;;;;;;5089593;28;19919;-71
2021/05/04 09:05:59;;;;;;;;;;;17.10;77.00;;;;;;5090601;28;20373;-71
2021/05/04 09:08:33;;;;;;;;;;;17.30;78.50;;;;;;5091570;28;19912;-71
2021/05/04 09:11:19;;;;;;;;;;;17.70;79.00;;;;;;5091538;28;20368;-70
2021/05/04 09:13:47;;;;;;;;;;;17.90;76.10;;;;;;5091573;28;20292;-70
2021/05/04 09:16:37;;;;;;;;;;;18.20;75.80;;;;;;5090414;28;19908;-70
2021/05/04 09:19:12;;;;;;;;;;;18.20;74.90;;;;;;5090735;28;20657;-71
2021/05/04 09:21:39;;;;;;;;;;;18.20;74.90;;;;;;5089956;28;19908;-70
2021/05/04 09:24:16;;;;;;;;;;;18.20;75.20;;;;;;5091493;28;19908;-71
2021/05/04 09:26:42;;;;;;;;;;;18.20;76.30;;;;;;5090203;28;19914;-71
2021/05/04 09:29:09;;;;;;;;;;;18.30;75.60;;;;;;5091049;28;19912;-71
2021/05/04 09:31:35;;;;;;;;;;;18.60;77.70;;;;;;5089531;28;20007;-71
2021/05/04 09:34:14;;;;;;;;;;;18.70;73.60;;;;;;5090832;28;20361;-70
2021/05/04 09:36:40;;;;;;;;;;;18.70;72.80;;;;;;5090133;28;19912;-70
2021/05/04 09:39:06;;;;;;;;;;;18.60;72.80;;;;;;5091151;28;19994;-70
2021/05/04 09:41:32;;;;;;;;;;;18.60;73.20;;;;;;5091218;28;19999;-71
2021/05/04 09:43:57;;;;;;;;;;;18.40;73.60;;;;;;5091171;28;20031;-71
2021/05/04 09:46:41;;;;;;;;;;;18.50;75.70;;;;;;5090176;28;20369;-71
2021/05/04 09:49:22;;;;;;;;;;;18.60;73.30;;;;;;5090902;28;19912;-70
2021/05/04 09:51:49;;;;;;;;;;;18.70;73.10;;;;;;5091216;28;19908;-70
2021/05/04 09:54:22;;;;;;;;;;;18.60;74.00;;;;;;5090862;28;19915;-70
2021/05/04 09:56:48;;;;;;;;;;;18.40;72.60;;;;;;5090105;28;20033;-70
2021/05/04 09:59:14;;;;;;;;;;;18.30;72.90;;;;;;5091019;28;20390;-70
2021/05/04 10:01:40;;;;;;;;;;;18.30;71.40;;;;;;5089286;28;20363;-70
2021/05/04 10:04:06;;;;;;;;;;;18.40;73.10;;;;;;5094785;28;19951;-71
2021/05/04 10:06:32;;;;;;;;;;;18.50;74.10;;;;;;5092648;28;19916;-70
2021/05/04 10:08:58;;;;;;;;;;;18.60;72.90;;;;;;5094977;28;19912;-70
2021/05/04 10:11:23;;;;;;;;;;;18.80;72.20;;;;;;5095137;28;19908;-70
2021/05/04 10:13:58;;;;;;;;;;;18.90;72.40;;;;;;5094800;28;19961;-70
2021/05/04 10:16:24;;;;;;;;;;;18.90;73.40;;;;;;5093590;28;19908;-70
2021/05/04 10:19:00;;;;;;;;;;;19.00;74.10;;;;;;5093314;28;19912;-70
2021/05/04 10:21:27;;;;;;;;;;;19.10;74.00;;;;;;5085423;28;19919;-70
2021/05/04 10:23:52;;;;;;;;;;;19.00;72.60;;;;;;5094319;28;19919;-70
2021/05/04 10:26:18;;;;;;;;;;;18.90;71.80;;;;;;5093254;28;19908;-70
2021/05/04 10:28:55;;;;;;;;;;;18.70;68.80;;;;;;5093955;28;19912;-70
2021/05/04 10:31:38;;;;;;;;;;;18.30;70.70;;;;;;5092135;28;19912;-70
2021/05/04 10:34:22;;;;;;;;;;;18.20;71.00;;;;;;5092760;28;19918;-70
2021/05/04 10:36:47;;;;;;;;;;;18.10;72.00;;;;;;5093023;28;20049;-71
2021/05/04 10:39:13;;;;;;;;;;;18.20;71.20;;;;;;5092454;28;20354;-70
2021/05/04 10:41:54;;;;;;;;;;;18.00;71.40;;;;;;5094346;28;19915;-70
2021/05/04 10:44:19;;;;;;;;;;;17.70;70.50;;;;;;5093620;28;20079;-70
2021/05/04 10:46:45;;;;;;;;;;;17.50;72.40;;;;;;5092821;28;20325;-71
2021/05/04 10:49:18;;;;;;;;;;;17.30;70.60;;;;;;5093510;28;19912;-70
2021/05/04 10:51:52;;;;;;;;;;;17.40;74.20;;;;;;5093614;28;19908;-71
2021/05/04 10:54:21;;;;;;;;;;;17.40;72.90;;;;;;5093713;28;19966;-70
2021/05/04 10:56:48;;;;;;;;;;;17.40;72.20;;;;;;5091076;28;19915;-70
2021/05/04 10:59:37;;;;;;;;;;;17.40;72.70;;;;;;5093872;28;19908;-71
2021/05/04 11:02:09;;;;;;;;;;;17.50;74.70;;;;;;5086071;28;20395;-71
2021/05/04 11:04:38;;;;;;;;;;;17.60;72.30;;;;;;5093232;28;19908;-70
2021/05/04 11:07:03;;;;;;;;;;;17.50;72.60;;;;;;5092674;28;19936;-71
2021/05/04 11:09:29;;;;;;;;;;;17.50;72.10;;;;;;5093710;28;19959;-71
2021/05/04 11:11:55;;;;;;;;;;;17.40;72.80;;;;;;5093736;28;19908;-70
2021/05/04 11:14:22;;;;;;;;;;;17.30;73.10;;;;;;5092711;28;20347;-70
2021/05/04 11:16:53;;;;;;;;;;;17.30;73.10;;;;;;5092600;28;20257;-70
2021/05/04 11:19:31;;;;;;;;;;;17.30;72.20;;;;;;5093498;28;19953;-70
2021/05/04 11:21:57;;;;;;;;;;;17.20;73.70;;;;;;5093523;28;19915;-70
2021/05/04 11:24:35;;;;;;;;;;;17.40;74.80;;;;;;5093234;28;20422;-70
2021/05/04 11:27:09;;;;;;;;;;;17.40;72.80;;;;;;5092595;28;19912;-70
2021/05/04 11:29:35;;;;;;;;;;;17.30;71.80;;;;;;5093033;28;19947;-70
2021/05/04 11:32:19;;;;;;;;;;;16.90;72.50;;;;;;5097367;28;19935;-70
2021/05/04 11:34:46;;;;;;;;;;;16.70;72.70;;;;;;5113246;28;20267;-70
2021/05/04 11:37:13;;;;;;;;;;;16.50;72.10;;;;;;5112225;28;19912;-71
2021/05/04 11:39:49;;;;;;;;;;;16.40;74.10;;;;;;5113175;28;19908;-70
2021/05/04 11:42:14;;;;;;;;;;;16.40;74.20;;;;;;5112770;28;19914;-71
2021/05/04 11:44:40;;;;;;;;;;;16.40;75.50;;;;;;5112848;28;19912;-70
2021/05/04 11:47:22;;;;;;;;;;;16.40;73.50;;;;;;5110912;28;19908;-71
2021/05/04 11:49:48;;;;;;;;;;;16.50;74.40;;;;;;5112360;28;19912;-70
2021/05/04 11:52:16;;;;;;;;;;;16.40;76.00;;;;;;5112722;28;19908;-71
2021/05/04 11:54:42;;;;;;;;;;;16.60;75.90;;;;;;5112879;28;19908;-70
2021/05/04 11:57:07;;;;;;;;;;;16.70;73.50;;;;;;5112025;28;19914;-70
2021/05/04 11:59:33;;;;;;;;;;;16.70;74.60;;;;;;5112437;28;19947;-70
2021/05/04 12:01:58;;;;;;;;;;;16.50;74.20;;;;;;5103087;28;19915;-70
2021/05/04 12:04:43;;;;;;;;;;;16.40;74.50;;;;;;5091469;28;19911;-71
2021/05/04 12:07:08;;;;;;;;;;;16.40;72.70;;;;;;5091166;28;19912;-70
2021/05/04 12:09:37;;;;;;;;;;;16.40;73.70;;;;;;5091996;28;19957;-70
2021/05/04 12:12:09;;;;;;;;;;;16.50;74.40;;;;;;5092135;28;19908;-71
2021/05/04 12:14:54;;;;;;;;;;;16.60;75.30;;;;;;5092394;28;19915;-70
2021/05/04 12:17:23;;;;;;;;;;;16.60;75.50;;;;;;5091370;28;19908;-70
2021/05/04 12:19:48;;;;;;;;;;;16.60;73.40;;;;;;5091970;28;20396;-70
2021/05/04 12:22:14;;;;;;;;;;;16.40;72.90;;;;;;5092368;28;19912;-70
2021/05/04 12:24:39;;;;;;;;;;;16.30;73.40;;;;;;5090963;28;19951;-70
2021/05/04 12:27:05;;;;;;;;;;;16.30;74.90;;;;;;5090942;28;20302;-70
2021/05/04 12:29:31;;;;;;;;;;;16.40;73.40;;;;;;5091937;28;19919;-70
2021/05/04 12:31:56;;;;;;;;;;;16.40;73.40;;;;;;5089944;28;19908;-70
2021/05/04 12:34:23;;;;;;;;;;;16.40;74.60;;;;;;5091138;28;20387;-70
2021/05/04 12:36:57;;;;;;;;;;;16.50;74.30;;;;;;5090711;28;19919;-71
2021/05/04 12:39:31;;;;;;;;;;;16.60;75.90;;;;;;5091910;28;20061;-70
2021/05/04 12:41:59;;;;;;;;;;;16.70;72.80;;;;;;5092179;28;19915;-70
2021/05/04 12:44:26;;;;;;;;;;;16.60;73.20;;;;;;5091989;28;19908;-70
2021/05/04 12:46:52;;;;;;;;;;;16.60;77.90;;;;;;5091516;28;19915;-70
2021/05/04 12:49:18;;;;;;;;;;;16.20;81.40;;;;;;5091257;28;19916;-70
2021/05/04 12:51:46;;;;;;;;;;;16.10;83.20;;;;;;5091689;28;19908;-71
2021/05/04 12:54:19;;;;;;;;;;;15.80;86.10;;;;;;5091239;28;20390;-71
2021/05/04 12:56:45;;;;;;;;;;;15.70;86.00;;;;;;5090090;28;19961;-71
2021/05/04 12:59:14;;;;;;;;;;;15.90;84.30;;;;;;5091383;28;19916;-71
2021/05/04 13:01:41;;;;;;;;;;;16.10;82.50;;;;;;5089432;28;19931;-71
2021/05/04 13:04:13;;;;;;;;;;;16.10;83.10;;;;;;5098135;28;19922;-71
2021/05/04 13:06:46;;;;;;;;;;;16.00;83.20;;;;;;5110937;28;19911;-71
2021/05/04 13:11:46;;;;;;;;;;;15.60;82.00;;;;;;5111556;28;20357;-70
2021/05/04 13:14:56;;;;;;;;;;;15.50;80.60;;;;;;5111021;28;19932;-70
2021/05/04 13:18:16;;;;;;;;;;;15.50;82.70;;;;;;5110541;28;20388;-70
2021/05/04 13:28:25;;;;;;;;;;;15.90;80.40;;;;;;5111502;28;20288;-70
2021/05/04 13:30:52;;;;;;;;;;;15.90;76.70;;;;;;5111134;28;19919;-70
2021/05/04 13:33:17;;;;;;;;;;;15.80;79.10;;;;;;5090268;28;19915;-70
2021/05/04 13:35:57;;;;;;;;;;;15.80;78.30;;;;;;5089768;28;19909;-71
2021/05/04 13:38:47;;;;;;;;;;;15.60;78.30;;;;;;5090720;28;19927;-70
2021/05/04 13:49:26;;;;;;;;;;;15.70;79.20;;;;;;5090648;28;20383;-71
2021/05/04 13:51:51;;;;;;;;;;;15.40;79.40;;;;;;5091326;28;20038;-70
2021/05/04 13:54:17;;;;;;;;;;;15.00;82.30;;;;;;5091184;28;19908;-71
2021/05/04 13:56:43;;;;;;;;;;;14.80;82.70;;;;;;5089991;28;19916;-71
2021/05/04 13:59:08;;;;;;;;;;;14.70;85.60;;;;;;5090801;28;19936;-71
2021/05/04 14:01:53;;;;;;;;;;;14.70;85.80;;;;;;5088977;28;19908;-71
2021/05/04 14:04:35;;;;;;;;;;;14.80;84.20;;;;;;5089971;28;19986;-71
2021/05/04 14:07:25;;;;;;;;;;;14.60;84.90;;;;;;5089926;28;20293;-71
2021/05/04 14:28:21;;;;;;;;;;;14.00;87.90;;;;;;5090305;28;19927;-71
2021/05/04 14:30:46;;;;;;;;;;;13.80;88.40;;;;;;5090608;28;19908;-70
2021/05/04 14:33:12;;;;;;;;;;;13.80;90.00;;;;;;5088288;28;19909;-70
2021/05/04 14:35:42;;;;;;;;;;;13.70;89.00;;;;;;5089384;28;20357;-70
2021/05/04 14:53:50;;;;;;;;;;;12.70;93.20;;;;;;5093943;28;19915;-71
2021/05/04 14:59:24;;;;;;;;;;;12.40;94.20;;;;;;5093971;28;19908;-70
2021/05/04 15:04:09;;;;;;;;;;;12.10;95.80;;;;;;5106281;28;19946;-70
2021/05/04 15:06:35;;;;;;;;;;;12.00;96.10;;;;;;5113172;28;19984;-70
2021/05/04 15:09:02;;;;;;;;;;;11.90;96.60;;;;;;5114240;28;19919;-70
2021/05/04 15:11:27;;;;;;;;;;;11.90;97.40;;;;;;5114280;28;19915;-69
2021/05/04 15:13:57;;;;;;;;;;;11.90;98.10;;;;;;5114028;28;20300;-70
2021/05/04 15:16:32;;;;;;;;;;;12.00;98.30;;;;;;5113439;28;20446;-70
2021/05/04 15:21:48;;;;;;;;;;;12.00;98.90;;;;;;5113817;28;19952;-70
2021/05/04 15:24:13;;;;;;;;;;;12.00;99.30;;;;;;5113737;28;19908;-70
2021/05/04 15:26:39;;;;;;;;;;;11.90;99.90;;;;;;5112804;28;19907;-71